Time;durP1;ratioP1;P1;durP2;ratioP2;P2;SDS_P1;SDS_P2;PMS_P1;PMS_P2;Temp;Humidity;BMP_temperature;BMP_pressure;BME280_temperature;BME280_humidity;BME280_pressure;Samples;Min_cycle;Max_cycle;Signal;HPM_P1;HPM_P2
2022/05/06 00:00:32;;;;;;;13.53;7.93;;;;;;;14.15;61.44;100291.22;4172319;28;21637;-68
2022/05/06 00:02:59;;;;;;;18.30;8.97;;;;;;;14.07;61.74;100298.41;4188168;28;20244;-69
2022/05/06 00:05:25;;;;;;;16.13;8.90;;;;;;;14.15;62.13;100296.56;4173265;28;21120;-67
2022/05/06 00:07:52;;;;;;;15.07;8.57;;;;;;;14.27;61.73;100297.03;4157472;28;20285;-69
2022/05/06 00:10:18;;;;;;;19.63;9.03;;;;;;;14.24;61.86;100294.72;4178397;28;20366;-68
2022/05/06 00:12:45;;;;;;;14.03;8.30;;;;;;;14.24;62.13;100292.03;4181742;28;21494;-68
2022/05/06 00:15:11;;;;;;;19.67;8.63;;;;;;;14.20;62.44;100296.03;4174451;28;20238;-68
2022/05/06 00:17:38;;;;;;;18.77;9.00;;;;;;;14.19;62.58;100293.53;4176033;28;20343;-68
2022/05/06 00:20:06;;;;;;;19.47;8.43;;;;;;;14.14;62.63;100289.56;4175068;28;20226;-68
2022/05/06 00:22:32;;;;;;;15.40;8.67;;;;;;;14.13;62.76;100289.72;4178258;28;20292;-69
2022/05/06 00:24:59;;;;;;;18.57;9.07;;;;;;;14.07;63.41;100285.03;4169038;28;20274;-69
2022/05/06 00:27:25;;;;;;;19.67;9.13;;;;;;;14.08;63.79;100282.19;4151202;28;20277;-68
2022/05/06 00:29:52;;;;;;;16.17;8.17;;;;;;;14.15;63.47;100282.34;4170690;28;26337;-67
2022/05/06 00:32:19;;;;;;;16.10;8.90;;;;;;;14.17;63.80;100285.69;4190976;28;22194;-69
2022/05/06 00:34:45;;;;;;;16.70;9.43;;;;;;;14.12;64.18;100283.53;4173064;28;25375;-68
2022/05/06 00:37:12;;;;;;;16.33;8.70;;;;;;;14.08;63.80;100276.03;4182728;28;21087;-70
2022/05/06 00:39:39;;;;;;;20.60;9.17;;;;;;;14.10;64.19;100285.53;4174574;28;20230;-70
2022/05/06 00:42:06;;;;;;;16.87;8.77;;;;;;;14.15;64.47;100283.19;4187924;28;20234;-69
2022/05/06 00:44:32;;;;;;;16.30;9.73;;;;;;;14.18;63.93;100278.50;4179353;28;20293;-52
2022/05/06 00:46:59;;;;;;;17.10;9.60;;;;;;;14.21;64.56;100270.97;4181805;28;20253;-47
2022/05/06 00:49:25;;;;;;;18.23;9.77;;;;;;;14.17;64.34;100285.69;4177999;28;20503;-68
2022/05/06 00:51:52;;;;;;;13.30;8.87;;;;;;;14.26;64.54;100287.34;4168045;28;20245;-69
2022/05/06 00:54:24;;;;;;;19.83;9.70;;;;;;;14.23;64.73;100290.34;4177520;28;20625;-69
2022/05/06 00:56:51;;;;;;;23.67;10.03;;;;;;;14.28;64.82;100282.66;4179333;28;21283;-69
2022/05/06 00:59:17;;;;;;;20.30;10.07;;;;;;;14.29;65.08;100292.34;4191024;28;21489;-68
2022/05/06 01:01:44;;;;;;;16.53;10.60;;;;;;;14.27;65.61;100286.31;4179685;28;20238;-69
2022/05/06 01:04:11;;;;;;;21.23;10.47;;;;;;;14.25;65.92;100290.19;4167289;28;21826;-68
2022/05/06 01:06:38;;;;;;;22.07;10.53;;;;;;;14.11;67.05;100297.91;4177120;28;22031;-69
2022/05/06 01:09:05;;;;;;;22.03;10.53;;;;;;;14.20;66.85;100295.22;4177571;28;20237;-68
2022/05/06 01:11:32;;;;;;;20.67;10.50;;;;;;;14.13;66.88;100290.53;4180694;28;20305;-68
2022/05/06 01:13:59;;;;;;;19.50;10.70;;;;;;;14.08;67.73;100297.44;4176012;28;20229;-73
2022/05/06 01:16:32;;;;;;;19.23;10.83;;;;;;;14.12;67.27;100293.41;4172225;28;20229;-48
2022/05/06 01:18:58;;;;;;;19.87;10.67;;;;;;;14.15;67.40;100301.09;4186999;28;21245;-51
2022/05/06 01:21:26;;;;;;;19.80;10.70;;;;;;;14.00;67.88;100292.09;4177339;28;21724;-68
2022/05/06 01:23:53;;;;;;;19.67;10.87;;;;;;;13.97;68.36;100305.81;4182229;28;20370;-68
2022/05/06 01:26:20;;;;;;;17.13;10.43;;;;;;;13.86;68.15;100299.81;4182778;28;20237;-67
2022/05/06 01:28:47;;;;;;;24.43;12.07;;;;;;;13.68;69.14;100301.84;4178437;28;23241;-67
2022/05/06 01:31:22;;;;;;;15.80;10.53;;;;;;;13.83;69.43;100301.97;4177494;28;20344;-68
2022/05/06 01:33:54;;;;;;;15.97;10.50;;;;;;;13.76;69.34;100299.16;4179757;28;20237;-67
2022/05/06 01:36:24;;;;;;;19.90;11.07;;;;;;;13.65;69.93;100300.34;4190351;28;20407;-67
2022/05/06 01:38:53;;;;;;;21.73;11.03;;;;;;;13.66;69.84;100293.16;4195808;28;20374;-68
2022/05/06 01:41:24;;;;;;;19.33;11.80;;;;;;;13.61;70.26;100290.16;4176138;28;20241;-68
2022/05/06 01:43:56;;;;;;;20.07;11.33;;;;;;;13.54;71.07;100299.84;4167613;28;20233;-68
2022/05/06 01:46:25;;;;;;;23.37;12.70;;;;;;;13.51;71.27;100296.50;4176691;28;20242;-69
2022/05/06 01:48:52;;;;;;;20.20;11.63;;;;;;;13.56;71.54;100303.19;4180708;28;20238;-69
2022/05/06 01:51:19;;;;;;;24.90;11.30;;;;;;;13.63;71.11;100294.31;4180146;28;22195;-67
2022/05/06 01:53:46;;;;;;;21.93;12.20;;;;;;;13.60;71.41;100300.03;4171171;28;20237;-69
2022/05/06 01:56:17;;;;;;;19.87;11.40;;;;;;;13.59;71.83;100303.69;4192043;28;20579;-67
2022/05/06 01:58:44;;;;;;;21.50;11.63;;;;;;;13.48;72.68;100301.34;4177778;28;20344;-68
2022/05/06 02:01:14;;;;;;;21.53;12.20;;;;;;;13.43;72.71;100301.84;4171602;28;21054;-68
2022/05/06 02:06:26;;;;;;;20.13;13.07;;;;;;;13.57;72.93;100299.50;4188748;28;20393;-69
2022/05/06 02:08:53;;;;;;;16.70;12.03;;;;;;;13.45;73.19;100302.50;4177228;28;22800;-68
2022/05/06 02:11:20;;;;;;;24.87;12.83;;;;;;;13.44;74.09;100311.53;4176320;28;22756;-71
2022/05/06 02:13:46;;;;;;;23.00;12.70;;;;;;;13.53;73.99;100312.34;4166164;28;20602;-69
2022/05/06 02:16:13;;;;;;;25.07;12.73;;;;;;;13.60;73.46;100316.06;4188481;28;20888;-69
2022/05/06 02:18:40;;;;;;;21.83;12.50;;;;;;;13.62;74.09;100307.84;4177943;28;20926;-69
2022/05/06 02:21:06;;;;;;;19.93;13.60;;;;;;;13.66;73.89;100298.50;4166416;28;20229;-70
2022/05/06 02:23:33;;;;;;;20.03;13.50;;;;;;;13.66;73.98;100307.34;4177537;28;23020;-69
2022/05/06 02:26:00;;;;;;;21.43;13.60;;;;;;;13.67;73.99;100311.72;4169995;28;21347;-67
2022/05/06 02:28:27;;;;;;;20.87;13.60;;;;;;;13.72;73.60;100314.72;4175740;28;20239;-69
2022/05/06 02:33:39;;;;;;;25.77;13.13;;;;;;;13.63;74.32;100304.19;4195303;28;20684;-69
2022/05/06 02:36:06;;;;;;;21.77;12.87;;;;;;;13.59;74.38;100302.84;4189832;28;20249;-69
2022/05/06 02:38:32;;;;;;;22.23;13.77;;;;;;;13.65;74.68;100303.03;4178920;28;20237;-72
2022/05/06 02:40:59;;;;;;;22.40;13.50;;;;;;;13.55;75.34;100302.34;4177784;28;20883;-71
2022/05/06 02:43:26;;;;;;;24.47;13.67;;;;;;;13.59;75.27;100310.88;4186393;28;20296;-71
2022/05/06 02:45:53;;;;;;;23.73;13.03;;;;;;;13.62;75.61;100310.53;4180787;28;20365;-69
2022/05/06 02:48:19;;;;;;;21.63;13.83;;;;;;;13.59;75.64;100310.88;4194067;28;20242;-69
2022/05/06 02:50:47;;;;;;;24.93;14.27;;;;;;;13.57;75.80;100311.03;4178825;28;21248;-69
2022/05/06 02:53:13;;;;;;;24.67;13.53;;;;;;;13.66;75.47;100314.53;4194584;28;20248;-70
2022/05/06 02:55:40;;;;;;;21.23;13.87;;;;;;;13.58;75.70;100311.84;4168655;28;20230;-73
2022/05/06 02:58:06;;;;;;;21.53;14.10;;;;;;;13.57;76.52;100311.03;4183110;28;20300;-71
2022/05/06 03:00:33;;;;;;;21.67;14.53;;;;;;;13.48;76.36;100310.19;4168956;28;20226;-69
2022/05/06 03:03:00;;;;;;;19.90;14.13;;;;;;;13.42;76.99;100313.53;4179480;28;21989;-70
2022/05/06 03:05:26;;;;;;;25.50;14.87;;;;;;;13.50;76.25;100320.72;4179035;28;20233;-69
2022/05/06 03:07:53;;;;;;;24.40;14.87;;;;;;;13.43;76.91;100311.69;4178201;28;20233;-69
2022/05/06 03:10:19;;;;;;;25.83;14.53;;;;;;;13.14;78.38;100309.47;4178256;28;22060;-69
2022/05/06 03:12:48;;;;;;;29.50;15.13;;;;;;;13.15;78.68;100317.31;4179551;28;21791;-69
2022/05/06 03:15:15;;;;;;;24.90;14.50;;;;;;;13.16;79.09;100319.00;4178638;28;20820;-68
2022/05/06 03:17:42;;;;;;;28.43;15.47;;;;;;;13.31;78.23;100321.88;4180784;28;20294;-68
2022/05/06 03:20:08;;;;;;;27.73;14.70;;;;;;;13.35;78.48;100327.75;4168423;28;21303;-68
2022/05/06 03:22:40;;;;;;;26.63;14.90;;;;;;;13.28;77.83;100325.72;4174909;28;20242;-69
2022/05/06 03:25:07;;;;;;;24.97;14.53;;;;;;;13.31;78.52;100327.22;4170311;28;20782;-68
2022/05/06 03:30:19;;;;;;;24.07;15.70;;;;;;;13.45;77.35;100333.75;4172786;28;20240;-69
2022/05/06 03:32:46;;;;;;;26.87;15.33;;;;;;;13.47;78.06;100337.09;4186945;28;21405;-68
2022/05/06 03:35:12;;;;;;;26.90;15.80;;;;;;;13.41;77.32;100335.91;4182643;28;20241;-70
2022/05/06 03:37:39;;;;;;;27.70;15.83;;;;;;;13.33;78.43;100349.28;4177426;28;21295;-69
2022/05/06 03:40:06;;;;;;;23.63;14.97;;;;;;;13.24;79.61;100344.88;4181076;28;21877;-69
2022/05/06 03:42:32;;;;;;;27.70;15.57;;;;;;;13.15;80.09;100346.69;4179765;28;20234;-70
2022/05/06 03:44:59;;;;;;;30.27;15.87;;;;;;;12.96;81.63;100344.31;4181250;28;24844;-68
2022/05/06 03:47:26;;;;;;;26.30;15.07;;;;;;;13.03;81.20;100351.53;4173028;28;20757;-68
2022/05/06 03:52:38;;;;;;;27.07;15.93;;;;;;;12.75;82.60;100350.94;4189433;28;20418;-69
2022/05/06 03:55:05;;;;;;;24.80;16.20;;;;;;;12.66;84.04;100355.38;4211649;28;21313;-69
2022/05/06 03:57:31;;;;;;;35.37;17.43;;;;;;;12.60;84.26;100355.22;4177435;28;22974;-70
2022/05/06 03:59:58;;;;;;;24.47;15.80;;;;;;;12.57;84.49;100353.72;4185651;28;20260;-69
2022/05/06 04:02:25;;;;;;;27.40;16.77;;;;;;;12.64;84.88;100359.22;4194665;28;20236;-68
2022/05/06 04:04:52;;;;;;;27.27;16.63;;;;;;;12.53;85.43;100365.69;4210126;28;20310;-69
2022/05/06 04:07:19;;;;;;;30.70;17.07;;;;;;;12.60;84.77;100372.06;4195227;28;21853;-68
2022/05/06 04:09:45;;;;;;;28.47;16.80;;;;;;;12.55;85.02;100369.03;4177345;28;21419;-68
2022/05/06 04:12:12;;;;;;;30.00;17.43;;;;;;;12.54;85.11;100366.53;4194315;28;20356;-68
2022/05/06 04:14:39;;;;;;;27.97;16.67;;;;;;;12.49;85.73;100372.34;4202684;28;20831;-67
2022/05/06 04:17:05;;;;;;;31.27;16.77;;;;;;;12.48;85.60;100373.34;4196203;28;20227;-69
2022/05/06 04:19:32;;;;;;;29.37;16.27;;;;;;;12.61;85.77;100373.72;4204703;28;20230;-69
2022/05/06 04:24:48;;;;;;;31.20;16.17;;;;;;;12.57;85.34;100372.41;4196945;28;20665;-70
2022/05/06 04:27:15;;;;;;;33.10;16.83;;;;;;;12.60;84.78;100377.41;4215304;28;20914;-67
2022/05/06 04:29:41;;;;;;;26.23;16.33;;;;;;;12.55;84.77;100379.72;4215601;28;20235;-69
2022/05/06 04:32:08;;;;;;;27.43;16.10;;;;;;;12.59;84.29;100389.06;4249713;28;20697;-70
2022/05/06 04:34:35;;;;;;;31.87;16.67;;;;;;;12.56;84.88;100386.72;4213905;28;20665;-68
2022/05/06 04:37:03;;;;;;;29.40;16.50;;;;;;;12.56;84.42;100392.06;4189748;28;20389;-68
2022/05/06 04:39:32;;;;;;;28.17;16.93;;;;;;;12.53;85.33;100387.06;4264761;28;20346;-68
2022/05/06 04:42:03;;;;;;;25.90;16.67;;;;;;;12.55;85.58;100395.75;4198911;28;20242;-68
2022/05/06 04:44:30;;;;;;;29.80;16.67;;;;;;;12.58;84.93;100390.06;4184312;28;21642;-68
2022/05/06 04:46:56;;;;;;;27.73;16.13;;;;;;;12.71;84.30;100394.97;4276029;28;20236;-69
2022/05/06 04:49:23;;;;;;;30.63;16.63;;;;;;;12.63;84.25;100393.09;4242718;28;20264;-72
2022/05/06 04:51:51;;;;;;;29.80;15.87;;;;;;;12.78;83.95;100404.03;4169137;28;20242;-69
2022/05/06 04:54:17;;;;;;;27.67;16.87;;;;;;;12.79;82.74;100404.88;4224592;28;20713;-70
2022/05/06 04:56:44;;;;;;;26.03;16.17;;;;;;;12.68;83.50;100411.31;4195452;28;20751;-68
2022/05/06 04:59:10;;;;;;;33.17;17.07;;;;;;;12.60;83.10;100408.63;4196690;28;20324;-69
2022/05/06 05:01:37;;;;;;;25.03;16.93;;;;;;;12.63;83.48;100405.63;4215900;28;21249;-73
2022/05/06 05:04:04;;;;;;;24.60;16.30;;;;;;;12.87;82.33;100410.22;4168434;28;23161;-69
2022/05/06 05:06:33;;;;;;;30.30;17.33;;;;;;;12.76;82.74;100402.50;4151388;28;20232;-70
2022/05/06 05:08:59;;;;;;;26.67;16.37;;;;;;;12.77;82.92;100409.53;4147861;28;20291;-70
2022/05/06 05:11:26;;;;;;;31.93;16.43;;;;;;;12.89;82.58;100402.91;4167449;28;20443;-70
2022/05/06 05:13:52;;;;;;;25.50;16.77;;;;;;;13.01;81.36;100409.59;4150281;28;20317;-69
2022/05/06 05:16:19;;;;;;;29.07;15.50;;;;;;;13.19;80.04;100412.19;4148505;28;20234;-68
2022/05/06 05:18:46;;;;;;;25.97;15.60;;;;;;;13.12;80.26;100413.00;4134113;28;20279;-71
2022/05/06 05:21:12;;;;;;;25.93;15.87;;;;;;;13.05;80.75;100423.50;4144105;28;23131;-69
2022/05/06 05:23:40;;;;;;;25.50;15.83;;;;;;;13.02;80.31;100418.47;4155330;28;20270;-70
2022/05/06 05:26:07;;;;;;;32.80;16.47;;;;;;;13.07;80.12;100416.16;4154740;28;20229;-72
2022/05/06 05:28:33;;;;;;;24.80;15.93;;;;;;;13.09;80.19;100431.03;4150226;28;20235;-70
2022/05/06 05:31:00;;;;;;;29.43;14.83;;;;;;;13.18;80.21;100425.69;4154304;28;20234;-68
2022/05/06 05:33:27;;;;;;;27.57;15.77;;;;;;;13.28;79.55;100429.94;4176177;28;21041;-70
2022/05/06 05:35:53;;;;;;;31.70;15.57;;;;;;;13.22;78.67;100429.72;4153775;28;22743;-71
2022/05/06 05:38:19;;;;;;;27.97;15.10;;;;;;;13.12;79.72;100435.22;4160511;28;21992;-71
2022/05/06 05:40:46;;;;;;;28.13;15.03;;;;;;;13.05;79.36;100444.88;4149134;28;20345;-68
2022/05/06 05:48:45;;;;;;;23.83;14.50;;;;;;;13.09;79.02;100441.72;4144563;28;21290;-70
2022/05/06 05:51:12;;;;;;;20.83;13.63;;;;;;;13.25;77.80;100440.94;4173835;28;21755;-71
2022/05/06 05:53:38;;;;;;;22.23;13.13;;;;;;;13.48;77.15;100445.69;4148655;28;20231;-69
2022/05/06 05:56:05;;;;;;;22.20;13.00;;;;;;;13.51;76.67;100448.88;4175538;28;21454;-69
2022/05/06 05:58:34;;;;;;;24.90;12.67;;;;;;;13.50;75.52;100449.03;4141189;28;20359;-69
2022/05/06 06:01:03;;;;;;;24.03;12.60;;;;;;;13.46;75.89;100453.91;4149549;28;25533;-70
2022/05/06 06:03:29;;;;;;;24.67;11.57;;;;;;;13.44;75.11;100457.75;4155040;28;20234;-68
2022/05/06 06:05:56;;;;;;;17.97;10.77;;;;;;;13.39;75.08;100455.56;4158250;28;21647;-69
2022/05/06 06:08:24;;;;;;;20.77;12.23;;;;;;;13.20;75.73;100447.75;4182503;28;20719;-69
2022/05/06 06:10:50;;;;;;;18.43;10.97;;;;;;;13.27;75.67;100454.13;4172265;28;20233;-69
2022/05/06 06:13:17;;;;;;;19.53;10.63;;;;;;;13.45;73.25;100457.56;4163103;28;20237;-71
2022/05/06 06:15:44;;;;;;;21.67;10.50;;;;;;;13.44;73.53;100449.72;4173572;28;20422;-69
2022/05/06 06:18:10;;;;;;;21.03;11.63;;;;;;;13.32;74.26;100448.31;4182232;28;20348;-69
2022/05/06 06:20:37;;;;;;;19.57;10.67;;;;;;;13.30;74.48;100452.00;4188848;28;20232;-69
2022/05/06 06:23:04;;;;;;;27.50;12.80;;;;;;;13.27;74.72;100456.78;4187167;28;20327;-69
2022/05/06 06:25:30;;;;;;;22.23;11.17;;;;;;;13.29;74.82;100457.50;4183062;28;21656;-70
2022/05/06 06:27:57;;;;;;;20.13;11.27;;;;;;;13.21;74.83;100466.31;4197782;28;20232;-71
2022/05/06 06:30:24;;;;;;;22.30;11.53;;;;;;;13.21;74.69;100470.81;4184278;28;22136;-69
2022/05/06 06:32:51;;;;;;;22.00;11.30;;;;;;;13.20;74.58;100469.13;4210022;28;20283;-69
2022/05/06 06:35:18;;;;;;;23.20;11.40;;;;;;;13.18;74.88;100471.13;4193506;28;20295;-69
2022/05/06 06:37:45;;;;;;;24.20;11.13;;;;;;;13.14;75.50;100470.63;4177406;28;22238;-69
2022/05/06 06:40:12;;;;;;;22.60;12.50;;;;;;;13.19;75.34;100479.00;4201955;28;20304;-69
2022/05/06 06:42:41;;;;;;;23.23;11.23;;;;;;;13.15;76.12;100482.13;4195458;28;22621;-71
2022/05/06 06:45:09;;;;;;;22.13;12.10;;;;;;;13.05;76.80;100477.75;4193682;28;20279;-70
2022/05/06 06:47:36;;;;;;;22.73;12.20;;;;;;;13.03;76.57;100481.59;4207572;28;20241;-69
2022/05/06 06:50:02;;;;;;;20.20;11.40;;;;;;;13.05;77.03;100480.44;4200914;28;20370;-70
2022/05/06 06:52:29;;;;;;;19.77;11.60;;;;;;;13.24;76.85;100478.50;4214967;28;20281;-71
2022/05/06 06:54:57;;;;;;;25.27;12.90;;;;;;;13.26;76.64;100484.53;4191146;28;20243;-70
2022/05/06 06:57:26;;;;;;;21.00;12.27;;;;;;;13.51;75.41;100475.63;4211746;28;20421;-69
2022/05/06 06:59:52;;;;;;;19.27;11.60;;;;;;;13.48;75.41;100483.13;4184592;28;21818;-70
2022/05/06 07:02:20;;;;;;;23.83;12.40;;;;;;;13.51;75.14;100486.31;4214836;28;20725;-68
2022/05/06 07:04:46;;;;;;;24.50;11.47;;;;;;;13.41;75.74;100485.59;4194428;28;20232;-70
2022/05/06 07:12:44;;;;;;;24.73;12.43;;;;;;;13.50;74.89;100481.13;4182977;28;20756;-68
2022/05/06 07:15:10;;;;;;;23.07;12.63;;;;;;;13.45;75.61;100475.44;4188463;28;21336;-70
2022/05/06 07:17:37;;;;;;;24.00;13.17;;;;;;;13.66;75.34;100475.81;4204366;28;20228;-70
2022/05/06 07:20:04;;;;;;;25.70;12.50;;;;;;;14.56;72.73;100483.06;4234149;28;22217;-70
2022/05/06 07:22:31;;;;;;;21.17;11.50;;;;;;;15.91;66.42;100491.09;4188978;28;21876;-69
2022/05/06 07:24:57;;;;;;;17.37;10.97;;;;;;;16.40;64.53;100510.31;4211610;28;20334;-68
2022/05/06 07:27:25;;;;;;;22.47;11.30;;;;;;;16.23;63.03;100508.81;4205724;28;22279;-69
2022/05/06 07:29:52;;;;;;;17.93;10.27;;;;;;;16.84;61.91;100509.59;4201596;28;20232;-69
2022/05/06 07:32:19;;;;;;;21.60;10.80;;;;;;;17.85;57.37;100511.75;4191058;28;20283;-72
2022/05/06 07:34:45;;;;;;;20.30;10.43;;;;;;;18.42;55.68;100521.59;4197545;28;20654;-69
2022/05/06 07:37:12;;;;;;;17.13;11.40;;;;;;;17.88;56.89;100511.34;4219835;28;20233;-69
2022/05/06 07:39:39;;;;;;;21.77;10.87;;;;;;;18.03;56.74;100517.53;4190574;28;20250;-70
2022/05/06 07:42:06;;;;;;;21.27;10.57;;;;;;;18.28;55.48;100519.81;4174030;28;21192;-71
2022/05/06 07:44:32;;;;;;;22.37;11.50;;;;;;;18.16;55.44;100526.75;4182652;28;20241;-69
2022/05/06 07:46:59;;;;;;;17.60;11.20;;;;;;;18.43;54.65;100523.28;4181234;28;20763;-70
2022/05/06 07:49:26;;;;;;;17.40;10.50;;;;;;;18.33;55.18;100525.44;4174999;28;20335;-70
2022/05/06 07:51:52;;;;;;;19.93;10.90;;;;;;;17.99;56.53;100516.22;4189268;28;20234;-69
2022/05/06 07:54:19;;;;;;;21.93;12.00;;;;;;;18.16;56.00;100532.16;4183506;28;20235;-71
2022/05/06 07:56:45;;;;;;;22.37;12.30;;;;;;;18.27;56.14;100531.63;4197560;28;20229;-72
2022/05/06 07:59:12;;;;;;;23.67;12.13;;;;;;;17.98;56.84;100530.75;4181498;28;20241;-71
2022/05/06 08:04:34;;;;;;;18.33;10.60;;;;;;;18.57;54.51;100535.00;4203659;28;20310;-74
2022/05/06 08:07:05;;;;;;;18.97;10.70;;;;;;;18.52;54.69;100530.19;4216051;28;20386;-73
2022/05/06 08:09:33;;;;;;;19.30;10.80;;;;;;;18.53;54.15;100528.34;4219976;28;21714;-73
2022/05/06 08:12:00;;;;;;;18.23;10.97;;;;;;;18.34;55.13;100527.13;4223872;28;20292;-73
2022/05/06 08:14:27;;;;;;;22.13;11.60;;;;;;;18.14;55.89;100527.78;4192077;28;23718;-72
2022/05/06 08:16:53;;;;;;;20.80;11.67;;;;;;;18.13;55.31;100534.19;4225950;28;20384;-73
2022/05/06 08:19:20;;;;;;;21.67;11.90;;;;;;;18.22;56.54;100526.81;4202521;28;25040;-71
2022/05/06 08:21:50;;;;;;;21.57;11.43;;;;;;;19.15;53.09;100526.69;4221668;28;20246;-77
2022/05/06 08:24:18;;;;;;;19.13;12.07;;;;;;;18.38;54.86;100527.56;4236815;28;21890;-72
2022/05/06 08:26:45;;;;;;;20.87;12.43;;;;;;;18.27;54.90;100534.31;4185544;28;22316;-70
2022/05/06 08:29:12;;;;;;;20.87;11.67;;;;;;;18.21;54.65;100535.91;4233010;28;22634;-69
2022/05/06 08:31:38;;;;;;;20.30;13.17;;;;;;;17.49;58.16;100520.63;4172464;28;20674;-69
2022/05/06 08:34:09;;;;;;;21.30;13.50;;;;;;;17.11;59.95;100526.09;4220775;28;20276;-70
2022/05/06 08:36:37;;;;;;;22.67;13.43;;;;;;;17.26;59.72;100526.94;4196705;28;20955;-70
2022/05/06 08:39:05;;;;;;;24.67;14.00;;;;;;;17.65;58.39;100524.94;4218258;28;20255;-60
2022/05/06 08:41:32;;;;;;;31.73;13.33;;;;;;;18.09;58.94;100526.69;4210710;28;20233;-72
2022/05/06 08:50:50;;;;;;;20.43;13.70;;;;;;;18.41;57.30;100529.91;4252070;28;20339;-68
2022/05/06 08:52:21;;;;;;;23.10;12.90;;;;;;;19.07;52.35;100543.06;4238415;28;25246;-70
2022/05/06 08:54:51;;;;;;;18.07;12.60;;;;;;;19.69;51.93;100544.88;4246647;28;20242;-70
2022/05/06 08:57:17;;;;;;;20.37;13.00;;;;;;;20.55;49.64;100548.75;4266429;28;20314;-70
2022/05/06 08:59:51;;;;;;;23.00;13.83;;;;;;;19.92;51.55;100538.25;4220724;28;20234;-71
2022/05/06 09:02:20;;;;;;;17.83;12.97;;;;;;;19.69;51.86;100542.16;4185579;28;22518;-72
2022/05/06 09:04:47;;;;;;;19.70;13.07;;;;;;;19.12;54.07;100537.91;4169349;28;20238;-69
2022/05/06 09:07:17;;;;;;;25.20;14.60;;;;;;;18.62;56.07;100532.56;4177515;28;25486;-71
2022/05/06 09:09:44;;;;;;;24.50;13.50;;;;;;;19.04;54.69;100530.81;4182626;28;20232;-71
2022/05/06 09:17:49;;;;;;;20.57;12.00;;;;;;;19.86;51.89;100536.41;4182396;28;20300;-72
2022/05/06 09:20:20;;;;;;;22.77;12.80;;;;;;;19.47;51.43;100543.28;4181444;28;20332;-71
2022/05/06 09:22:50;;;;;;;18.07;11.60;;;;;;;19.11;51.64;100545.16;4167219;28;21619;-70
2022/05/06 09:25:36;;;;;;;16.40;11.27;;;;;;;19.50;51.95;100541.03;4183871;28;21049;-67
2022/05/06 09:28:04;;;;;;;20.23;12.23;;;;;;;19.84;51.84;100538.47;4202744;28;20305;-61
2022/05/06 09:30:30;;;;;;;22.97;13.20;;;;;;;19.49;53.01;100544.75;4192399;28;26415;-72
2022/05/06 09:32:57;;;;;;;17.17;11.47;;;;;;;19.46;52.67;100534.34;4192837;28;22650;-71
2022/05/06 09:35:30;;;;;;;18.37;12.10;;;;;;;19.33;53.13;100532.41;4179306;28;20241;-72
2022/05/06 09:37:57;;;;;;;17.23;11.23;;;;;;;19.37;52.18;100528.28;4189467;28;22684;-71
2022/05/06 09:40:31;;;;;;;18.63;11.63;;;;;;;19.53;51.34;100534.38;4201864;28;21036;-71
2022/05/06 09:42:59;;;;;;;17.23;10.53;;;;;;;19.70;51.33;100524.91;4183739;28;20234;-74
2022/05/06 09:45:39;;;;;;;16.53;11.53;;;;;;;19.51;52.28;100536.44;4196495;28;20234;-73
2022/05/06 09:48:09;;;;;;;16.33;11.27;;;;;;;19.04;53.00;100524.59;4209836;28;20241;-72
2022/05/06 09:50:40;;;;;;;25.17;11.13;;;;;;;19.33;53.75;100532.41;4210642;28;20233;-71
2022/05/06 09:53:15;;;;;;;24.40;11.73;;;;;;;19.97;51.26;100535.78;4200696;28;21298;-73
2022/05/06 09:55:46;;;;;;;17.77;11.53;;;;;;;20.21;50.41;100535.22;4187669;28;20245;-71
2022/05/06 09:58:14;;;;;;;14.40;9.53;;;;;;;20.04;49.36;100542.03;4183921;28;20244;-72
2022/05/06 10:00:41;;;;;;;14.67;9.23;;;;;;;20.36;48.68;100531.50;4181457;28;20403;-73
2022/05/06 10:03:11;;;;;;;16.07;9.77;;;;;;;20.26;47.46;100539.19;4178208;28;20603;-72
2022/05/06 10:05:39;;;;;;;17.10;10.83;;;;;;;20.24;48.64;100534.78;4182732;28;20240;-74
2022/05/06 10:08:15;;;;;;;15.33;10.30;;;;;;;20.07;49.38;100530.84;4190526;28;20236;-70
2022/05/06 10:11:12;;;;;;;14.27;9.70;;;;;;;19.56;50.43;100539.38;4175276;28;20233;-71
2022/05/06 10:13:45;;;;;;;15.53;9.37;;;;;;;19.45;50.28;100537.25;4177302;28;21685;-72
2022/05/06 10:16:12;;;;;;;13.73;8.63;;;;;;;19.04;49.54;100533.50;4194752;28;23693;-72
2022/05/06 10:18:40;;;;;;;14.03;9.40;;;;;;;19.44;50.95;100532.88;4173821;28;20237;-70
2022/05/06 10:21:08;;;;;;;14.40;9.17;;;;;;;20.05;48.02;100538.31;4178048;28;20526;-72
2022/05/06 10:23:43;;;;;;;16.20;9.33;;;;;;;19.91;49.83;100536.63;4165811;28;21421;-73
2022/05/06 10:26:33;;;;;;;17.17;10.60;;;;;;;20.07;48.85;100538.13;4193325;28;20376;-70
2022/05/06 10:34:35;;;;;;;16.27;10.77;;;;;;;20.11;49.13;100548.31;4200946;28;20241;-74
2022/05/06 10:37:13;;;;;;;20.13;11.87;;;;;;;19.77;50.17;100541.97;4167001;28;20786;-72
2022/05/06 10:39:40;;;;;;;21.80;11.57;;;;;;;19.98;49.67;100542.88;4218242;28;20279;-71
2022/05/06 10:42:17;;;;;;;15.60;10.93;;;;;;;20.05;50.81;100538.31;4212878;28;20237;-71
2022/05/06 10:44:51;;;;;;;18.67;12.13;;;;;;;19.24;51.75;100538.19;4197573;28;21369;-73
2022/05/06 10:47:18;;;;;;;22.23;12.43;;;;;;;19.49;52.19;100533.13;4187807;28;22158;-72
2022/05/06 10:49:52;;;;;;;15.93;11.57;;;;;;;19.69;50.75;100533.22;4182397;28;26327;-72
2022/05/06 10:52:28;;;;;;;17.97;12.43;;;;;;;19.77;51.32;100531.16;4194200;28;20300;-71
2022/05/06 10:55:00;;;;;;;23.33;14.20;;;;;;;19.75;49.97;100532.41;4207737;28;20268;-72
2022/05/06 10:57:44;;;;;;;19.03;13.17;;;;;;;19.96;48.98;100532.25;4168171;28;22714;-72
2022/05/06 11:00:11;;;;;;;20.07;13.60;;;;;;;19.51;49.49;100533.75;4174730;28;20234;-72
2022/05/06 11:02:41;;;;;;;23.33;15.03;;;;;;;19.39;50.46;100528.91;4211848;28;20347;-72
2022/05/06 11:05:14;;;;;;;21.50;13.97;;;;;;;19.47;50.00;100540.56;4191636;28;22181;-72
2022/05/06 11:07:43;;;;;;;20.70;14.60;;;;;;;19.96;47.09;100544.94;4184290;28;22186;-72
2022/05/06 11:10:13;;;;;;;26.47;16.33;;;;;;;19.55;48.74;100543.09;4190849;28;20291;-73
2022/05/06 11:12:46;;;;;;;21.50;15.93;;;;;;;19.56;49.26;100539.38;4188771;28;21600;-72
2022/05/06 11:15:17;;;;;;;21.70;15.70;;;;;;;19.38;47.46;100537.22;4181068;28;20414;-73
2022/05/06 11:17:45;;;;;;;26.60;15.87;;;;;;;19.49;48.87;100543.91;4198535;28;20230;-71
2022/05/06 11:20:19;;;;;;;22.27;14.97;;;;;;;19.61;44.89;100537.72;4181684;28;20438;-72
2022/05/06 11:22:52;;;;;;;19.70;14.43;;;;;;;19.60;45.17;100537.94;4185074;28;20232;-72
2022/05/06 11:25:20;;;;;;;22.03;13.83;;;;;;;19.80;45.10;100536.16;4204664;28;21790;-73
2022/05/06 11:27:47;;;;;;;19.73;13.07;;;;;;;20.00;44.81;100538.09;4212545;28;20241;-71
2022/05/06 11:30:17;;;;;;;19.27;13.20;;;;;;;19.71;46.22;100534.66;4202017;28;22766;-73
2022/05/06 11:32:53;;;;;;;21.67;14.67;;;;;;;19.37;46.02;100530.97;4197495;28;20235;-71
2022/05/06 11:35:35;;;;;;;24.43;16.67;;;;;;;18.78;49.17;100528.78;4215220;28;22199;-72
2022/05/06 11:38:03;;;;;;;26.00;17.37;;;;;;;18.83;50.89;100531.72;4162686;28;20311;-72
2022/05/06 11:40:35;;;;;;;24.23;16.43;;;;;;;19.16;48.88;100525.69;4243003;28;21700;-50
2022/05/06 11:43:06;;;;;;;22.40;15.27;;;;;;;19.46;48.01;100528.94;4251297;28;20617;-52
2022/05/06 11:48:22;;;;;;;23.40;15.97;;;;;;;20.02;47.45;100527.91;4219397;28;20462;-64
2022/05/06 11:50:56;;;;;;;23.63;15.73;;;;;;;19.61;47.13;100531.50;4213793;28;22952;-63
2022/05/06 11:53:27;;;;;;;24.10;15.13;;;;;;;19.88;46.84;100531.59;4219810;28;20462;-56
2022/05/06 11:55:55;;;;;;;19.80;14.60;;;;;;;20.04;45.66;100531.22;4193378;28;21784;-55
2022/05/06 11:58:23;;;;;;;22.00;14.10;;;;;;;20.42;45.50;100536.06;4172726;28;21981;-53
2022/05/06 12:00:52;;;;;;;21.03;13.93;;;;;;;20.14;44.01;100537.09;4177630;28;20225;-56